< Typhoon 199402 1994 Season Typhoon 199404 >
Typhoon 199403 (RUSS)
General InformationTrack Information on Google MapsDetailed Wind InformationList of All Images || Disaster Info.ResourceGoogle EarthGE AnimationAtom FeedGeoJSON
Detalied Best Track (Time Zone = UTC)
Year Month Day Hour Lat. Long. Pressure (hPa) Wind (kt) Class Image Chart
1994 6 3 06 20.0 114.5 1002 0 2 Image Chart
1994 6 3 12 20.0 115.0 1004 0 2 Image Chart
1994 6 3 18 20.0 115.5 1004 0 2 Image Chart
1994 6 4 00 20.0 116.0 1004 0 2 Image Chart
1994 6 4 06 20.0 116.5 1000 0 2 Image Chart
1994 6 4 12 20.0 116.8 1000 0 2 Image Chart
1994 6 4 18 20.1 116.9 998 35 3 Image Chart
1994 6 5 00 20.2 117.0 996 35 3 Image Chart
1994 6 5 06 20.1 117.1 994 35 3 Image Chart
1994 6 5 12 19.9 116.9 992 40 3 Image Chart
1994 6 5 18 19.8 116.5 992 45 3 Image Chart
1994 6 6 00 19.7 115.9 990 45 3 Image Chart
1994 6 6 06 19.6 115.3 985 50 4 Image Chart
1994 6 6 12 19.4 114.6 985 50 4 Image Chart
1994 6 6 18 19.4 113.8 985 50 4 Image Chart
1994 6 7 00 19.6 112.9 985 50 4 Image Chart
1994 6 7 06 19.9 112.5 985 50 4 Image Chart
1994 6 7 12 20.1 112.2 990 45 3 Image Chart
1994 6 7 18 20.2 111.6 990 45 3 Image Chart
1994 6 8 00 20.5 110.7 990 45 3 Image Chart
1994 6 8 06 21.2 110.5 992 40 3 Image Chart
1994 6 8 12 21.8 110.0 994 40 3 Image Chart
1994 6 8 18 22.6 109.8 994 35 3 Image Chart
1994 6 9 00 23.0 110.0 996 0 2 Image Chart
1994 6 9 06 24.0 110.0 1000 0 2 Image Chart
1994 6 9 12 24.0 110.0 1002 0 2 Image Chart
1994 6 9 18 27.0 114.0 1004 0 6 Image Chart
1994 6 10 00 27.5 115.0 1004 0 6 Image Chart
1994 6 10 06 28.0 117.5 1004 0 6 Image Chart
1994 6 10 12 28.5 119.5 1004 0 6 Image Chart
1994 6 10 18 29.0 122.0 1004 0 6 Image Chart
1994 6 11 00 30.5 124.0 1004 0 6 Image Chart
1994 6 11 06 31.0 126.0 1004 0 6 Image Chart
1994 6 11 12 31.0 128.0 1004 0 6 Image Chart
1994 6 11 18 32.0 130.0 1004 0 6 Image Chart
1994 6 12 00 32.0 134.0 1006 0 6 Image Chart
Japan Meteorological Agency Best Track Data | Correction Date : 1995-01-30
< Typhoon 199402 1994 Season Typhoon 199404 >

Help